sensor_id;sensor_type;location;lat;lon;timestamp;pressure;altitude;pressure_sealevel;temperature;humidity
6134;BME280;3098;42.678;23.364;2023-04-22T00:01:38;94615.66;;;8.58;100.00
6134;BME280;3098;42.678;23.364;2023-04-22T00:04:04;94557.84;;;8.21;100.00
6134;BME280;3098;42.678;23.364;2023-04-22T00:06:31;94624.78;;;8.52;100.00
6134;BME280;3098;42.678;23.364;2023-04-22T00:09:00;94627.81;;;8.46;100.00
6134;BME280;3098;42.678;23.364;2023-04-22T00:11:27;94602.13;;;8.38;100.00
6134;BME280;3098;42.678;23.364;2023-04-22T00:13:54;94492.75;;;7.59;100.00
6134;BME280;3098;42.678;23.364;2023-04-22T00:16:21;94601.03;;;8.17;100.00
6134;BME280;3098;42.678;23.364;2023-04-22T00:18:50;94543.66;;;7.73;100.00
6134;BME280;3098;42.678;23.364;2023-04-22T00:21:17;94543.13;;;7.84;100.00
6134;BME280;3098;42.678;23.364;2023-04-22T00:23:44;94558.69;;;7.86;100.00
6134;BME280;3098;42.678;23.364;2023-04-22T00:26:13;94599.84;;;8.23;100.00
6134;BME280;3098;42.678;23.364;2023-04-22T00:28:40;94605.13;;;8.23;100.00
6134;BME280;3098;42.678;23.364;2023-04-22T00:31:08;94406.44;;;7.01;100.00
6134;BME280;3098;42.678;23.364;2023-04-22T00:33:35;94613.84;;;8.45;100.00
6134;BME280;3098;42.678;23.364;2023-04-22T00:36:02;94591.03;;;8.27;100.00
6134;BME280;3098;42.678;23.364;2023-04-22T00:38:30;94564.03;;;7.94;100.00
6134;BME280;3098;42.678;23.364;2023-04-22T00:40:57;94541.66;;;7.78;100.00
6134;BME280;3098;42.678;23.364;2023-04-22T00:43:26;94619.09;;;8.23;100.00
6134;BME280;3098;42.678;23.364;2023-04-22T00:45:55;94561.06;;;7.74;100.00
6134;BME280;3098;42.678;23.364;2023-04-22T00:48:23;94594.47;;;7.78;100.00
6134;BME280;3098;42.678;23.364;2023-04-22T00:50:50;94631.13;;;7.93;100.00
6134;BME280;3098;42.678;23.364;2023-04-22T00:53:17;94599.78;;;7.65;100.00
6134;BME280;3098;42.678;23.364;2023-04-22T00:55:44;94558.69;;;7.23;100.00
6134;BME280;3098;42.678;23.364;2023-04-22T00:58:12;94546.97;;;7.15;100.00
6134;BME280;3098;42.678;23.364;2023-04-22T01:00:40;94480.41;;;6.55;100.00
6134;BME280;3098;42.678;23.364;2023-04-22T01:03:08;94629.91;;;7.50;100.00
6134;BME280;3098;42.678;23.364;2023-04-22T01:05:36;94471.59;;;6.32;100.00
6134;BME280;3098;42.678;23.364;2023-04-22T01:08:03;94636.47;;;7.39;100.00
6134;BME280;3098;42.678;23.364;2023-04-22T01:10:30;94615.53;;;7.15;100.00
6134;BME280;3098;42.678;23.364;2023-04-22T01:12:57;94643.88;;;7.23;100.00
6134;BME280;3098;42.678;23.364;2023-04-22T01:15:24;94640.75;;;7.21;100.00
6134;BME280;3098;42.678;23.364;2023-04-22T01:17:55;94637.63;;;7.19;100.00
6134;BME280;3098;42.678;23.364;2023-04-22T01:20:22;94612.41;;;7.00;100.00
6134;BME280;3098;42.678;23.364;2023-04-22T01:22:53;94551.66;;;6.64;100.00
6134;BME280;3098;42.678;23.364;2023-04-22T01:25:22;94608.50;;;6.97;100.00
6134;BME280;3098;42.678;23.364;2023-04-22T01:27:49;94456.91;;;5.99;100.00
6134;BME280;3098;42.678;23.364;2023-04-22T01:30:16;94625.81;;;7.17;100.00
6134;BME280;3098;42.678;23.364;2023-04-22T01:32:44;94603.50;;;6.95;100.00
6134;BME280;3098;42.678;23.364;2023-04-22T01:35:12;94578.41;;;6.84;100.00
6134;BME280;3098;42.678;23.364;2023-04-22T01:37:39;94555.38;;;6.76;100.00
6134;BME280;3098;42.678;23.364;2023-04-22T01:40:09;94637.13;;;7.31;100.00
6134;BME280;3098;42.678;23.364;2023-04-22T01:42:38;94609.78;;;7.13;100.00
6134;BME280;3098;42.678;23.364;2023-04-22T01:45:06;94634.50;;;7.31;100.00
6134;BME280;3098;42.678;23.364;2023-04-22T01:47:33;94611.44;;;7.23;100.00
6134;BME280;3098;42.678;23.364;2023-04-22T01:50:00;94626.31;;;7.46;100.00
6134;BME280;3098;42.678;23.364;2023-04-22T01:52:27;94630.78;;;7.59;100.00
6134;BME280;3098;42.678;23.364;2023-04-22T01:54:55;94614.97;;;7.45;100.00
6134;BME280;3098;42.678;23.364;2023-04-22T01:57:21;94574.63;;;7.31;100.00
6134;BME280;3098;42.678;23.364;2023-04-22T01:59:50;94606.13;;;7.64;100.00
6134;BME280;3098;42.678;23.364;2023-04-22T02:02:17;94565.91;;;7.44;100.00
6134;BME280;3098;42.678;23.364;2023-04-22T02:04:44;94608.47;;;7.79;100.00
6134;BME280;3098;42.678;23.364;2023-04-22T02:07:11;94631.97;;;8.02;100.00
6134;BME280;3098;42.678;23.364;2023-04-22T02:09:38;94628.56;;;8.02;100.00
6134;BME280;3098;42.678;23.364;2023-04-22T02:12:05;94628.44;;;8.07;100.00
6134;BME280;3098;42.678;23.364;2023-04-22T02:14:32;94608.47;;;7.79;100.00
6134;BME280;3098;42.678;23.364;2023-04-22T02:17:01;94628.59;;;7.88;100.00
6134;BME280;3098;42.678;23.364;2023-04-22T02:19:28;94633.69;;;7.85;100.00
6134;BME280;3098;42.678;23.364;2023-04-22T02:21:55;94635.13;;;7.91;100.00
6134;BME280;3098;42.678;23.364;2023-04-22T02:24:24;94634.91;;;8.01;100.00
6134;BME280;3098;42.678;23.364;2023-04-22T02:26:52;94631.47;;;8.14;100.00
6134;BME280;3098;42.678;23.364;2023-04-22T02:29:19;94623.81;;;8.13;100.00
6134;BME280;3098;42.678;23.364;2023-04-22T02:31:46;94626.19;;;8.14;100.00
6134;BME280;3098;42.678;23.364;2023-04-22T02:34:14;94627.44;;;8.17;100.00
6134;BME280;3098;42.678;23.364;2023-04-22T02:36:41;94602.94;;;8.02;100.00
6134;BME280;3098;42.678;23.364;2023-04-22T02:39:08;94616.22;;;8.11;100.00
6134;BME280;3098;42.678;23.364;2023-04-22T02:41:35;94634.19;;;8.09;100.00
6134;BME280;3098;42.678;23.364;2023-04-22T02:44:02;94624.47;;;7.96;100.00
6134;BME280;3098;42.678;23.364;2023-04-22T02:46:30;94600.06;;;7.77;100.00
6134;BME280;3098;42.678;23.364;2023-04-22T02:48:56;94653.22;;;7.97;100.00
6134;BME280;3098;42.678;23.364;2023-04-22T02:51:26;94614.56;;;7.66;100.00
6134;BME280;3098;42.678;23.364;2023-04-22T02:53:53;94620.69;;;7.61;100.00
6134;BME280;3098;42.678;23.364;2023-04-22T02:56:20;94643.84;;;7.78;100.00
6134;BME280;3098;42.678;23.364;2023-04-22T02:58:47;94645.72;;;7.77;100.00
6134;BME280;3098;42.678;23.364;2023-04-22T03:01:15;94599.03;;;7.37;100.00
6134;BME280;3098;42.678;23.364;2023-04-22T03:03:42;94642.81;;;7.51;100.00
6134;BME280;3098;42.678;23.364;2023-04-22T03:06:09;94643.88;;;7.37;100.00
6134;BME280;3098;42.678;23.364;2023-04-22T03:08:38;94641.34;;;7.32;100.00
6134;BME280;3098;42.678;23.364;2023-04-22T03:11:05;94650.72;;;7.38;100.00
6134;BME280;3098;42.678;23.364;2023-04-22T03:13:31;94618.84;;;6.93;100.00
6134;BME280;3098;42.678;23.364;2023-04-22T03:15:58;94653.81;;;7.13;100.00
6134;BME280;3098;42.678;23.364;2023-04-22T03:18:25;94657.22;;;7.00;100.00
6134;BME280;3098;42.678;23.364;2023-04-22T03:20:52;94655.19;;;6.97;100.00
6134;BME280;3098;42.678;23.364;2023-04-22T03:23:19;94581.09;;;6.52;100.00
6134;BME280;3098;42.678;23.364;2023-04-22T03:25:48;94610.59;;;6.68;100.00
6134;BME280;3098;42.678;23.364;2023-04-22T03:28:15;94664.84;;;7.01;100.00
6134;BME280;3098;42.678;23.364;2023-04-22T03:30:42;94646.22;;;6.98;100.00
6134;BME280;3098;42.678;23.364;2023-04-22T03:33:09;94665.16;;;7.13;100.00
6134;BME280;3098;42.678;23.364;2023-04-22T03:35:36;94585.81;;;6.55;100.00
6134;BME280;3098;42.678;23.364;2023-04-22T03:38:03;94670.34;;;7.18;100.00
6134;BME280;3098;42.678;23.364;2023-04-22T03:40:31;94635.84;;;7.01;100.00
6134;BME280;3098;42.678;23.364;2023-04-22T03:42:59;94599.78;;;6.69;100.00
6134;BME280;3098;42.678;23.364;2023-04-22T03:45:26;94667.22;;;7.16;100.00
6134;BME280;3098;42.678;23.364;2023-04-22T03:47:53;94647.78;;;7.12;100.00
6134;BME280;3098;42.678;23.364;2023-04-22T03:50:20;94620.41;;;6.94;100.00
6134;BME280;3098;42.678;23.364;2023-04-22T03:52:47;94674.47;;;7.38;100.00
6134;BME280;3098;42.678;23.364;2023-04-22T03:55:15;94622.28;;;6.94;100.00
6134;BME280;3098;42.678;23.364;2023-04-22T03:57:41;94682.47;;;7.33;100.00
6134;BME280;3098;42.678;23.364;2023-04-22T04:00:11;94682.09;;;7.53;100.00
6134;BME280;3098;42.678;23.364;2023-04-22T04:02:38;94668.53;;;7.46;100.00
6134;BME280;3098;42.678;23.364;2023-04-22T04:05:06;94675.97;;;7.58;100.00
6134;BME280;3098;42.678;23.364;2023-04-22T04:07:35;94385.56;;;5.68;100.00
6134;BME280;3098;42.678;23.364;2023-04-22T04:10:03;94676.63;;;7.77;100.00
6134;BME280;3098;42.678;23.364;2023-04-22T04:12:30;94609.03;;;7.26;100.00
6134;BME280;3098;42.678;23.364;2023-04-22T04:14:57;94680.38;;;7.98;100.00
6134;BME280;3098;42.678;23.364;2023-04-22T04:17:28;94664.19;;;7.91;100.00
6134;BME280;3098;42.678;23.364;2023-04-22T04:19:56;94628.19;;;7.81;100.00
6134;BME280;3098;42.678;23.364;2023-04-22T04:22:23;94683.97;;;8.29;100.00
6134;BME280;3098;42.678;23.364;2023-04-22T04:24:52;94512.84;;;7.32;100.00
6134;BME280;3098;42.678;23.364;2023-04-22T04:27:20;94684.97;;;8.55;100.00
6134;BME280;3098;42.678;23.364;2023-04-22T04:29:48;94611.28;;;7.82;100.00
6134;BME280;3098;42.678;23.364;2023-04-22T04:32:17;94469.56;;;6.70;100.00
6134;BME280;3098;42.678;23.364;2023-04-22T04:34:47;94659.41;;;8.15;100.00
6134;BME280;3098;42.678;23.364;2023-04-22T04:37:15;94704.31;;;8.42;100.00
6134;BME280;3098;42.678;23.364;2023-04-22T04:39:43;94705.97;;;8.38;100.00
6134;BME280;3098;42.678;23.364;2023-04-22T04:42:10;94716.50;;;8.52;100.00
6134;BME280;3098;42.678;23.364;2023-04-22T04:44:38;94710.19;;;8.26;100.00
6134;BME280;3098;42.678;23.364;2023-04-22T04:47:05;94696.19;;;8.39;100.00
6134;BME280;3098;42.678;23.364;2023-04-22T04:49:32;94718.50;;;8.33;100.00
6134;BME280;3098;42.678;23.364;2023-04-22T04:52:05;94649.03;;;7.83;100.00
6134;BME280;3098;42.678;23.364;2023-04-22T04:54:35;94717.16;;;8.57;100.00
6134;BME280;3098;42.678;23.364;2023-04-22T04:57:03;94719.84;;;8.80;100.00
6134;BME280;3098;42.678;23.364;2023-04-22T04:59:30;94728.13;;;8.87;100.00
6134;BME280;3098;42.678;23.364;2023-04-22T05:01:57;94723.94;;;9.08;100.00
6134;BME280;3098;42.678;23.364;2023-04-22T05:04:24;94694.56;;;9.18;100.00
6134;BME280;3098;42.678;23.364;2023-04-22T05:06:52;94644.53;;;8.55;100.00
6134;BME280;3098;42.678;23.364;2023-04-22T05:09:21;94721.75;;;9.41;100.00
6134;BME280;3098;42.678;23.364;2023-04-22T05:11:48;94673.13;;;9.28;100.00
6134;BME280;3098;42.678;23.364;2023-04-22T05:14:15;94660.47;;;9.47;100.00
6134;BME280;3098;42.678;23.364;2023-04-22T05:16:42;94638.22;;;9.17;100.00
6134;BME280;3098;42.678;23.364;2023-04-22T05:19:10;94732.81;;;10.13;100.00
6134;BME280;3098;42.678;23.364;2023-04-22T05:21:37;94736.47;;;10.60;100.00
6134;BME280;3098;42.678;23.364;2023-04-22T05:24:05;94733.34;;;11.81;100.00
6134;BME280;3098;42.678;23.364;2023-04-22T05:26:35;94646.38;;;12.94;92.84
6134;BME280;3098;42.678;23.364;2023-04-22T05:29:02;94722.22;;;14.34;85.45
6134;BME280;3098;42.678;23.364;2023-04-22T05:31:31;94735.59;;;14.86;77.00
6134;BME280;3098;42.678;23.364;2023-04-22T05:33:58;94741.47;;;15.91;74.20
6134;BME280;3098;42.678;23.364;2023-04-22T05:36:26;94727.66;;;17.05;62.42
6134;BME280;3098;42.678;23.364;2023-04-22T05:38:53;94738.38;;;17.24;60.15
6134;BME280;3098;42.678;23.364;2023-04-22T05:41:20;94693.69;;;18.68;54.71
6134;BME280;3098;42.678;23.364;2023-04-22T05:43:49;94712.22;;;19.73;50.76
6134;BME280;3098;42.678;23.364;2023-04-22T05:46:16;94705.06;;;19.18;48.56
6134;BME280;3098;42.678;23.364;2023-04-22T05:48:44;94681.34;;;16.86;55.67
6134;BME280;3098;42.678;23.364;2023-04-22T05:51:13;94731.19;;;17.90;57.51
6134;BME280;3098;42.678;23.364;2023-04-22T05:53:40;94725.34;;;18.82;52.74
6134;BME280;3098;42.678;23.364;2023-04-22T05:56:07;94723.56;;;19.56;50.20
6134;BME280;3098;42.678;23.364;2023-04-22T05:58:34;94721.94;;;19.15;48.24
6134;BME280;3098;42.678;23.364;2023-04-22T06:01:03;94725.97;;;17.77;53.43
6134;BME280;3098;42.678;23.364;2023-04-22T06:03:31;94705.25;;;16.44;55.85
6134;BME280;3098;42.678;23.364;2023-04-22T06:05:57;94727.59;;;15.85;60.38
6134;BME280;3098;42.678;23.364;2023-04-22T06:08:26;94726.97;;;17.28;59.87
6134;BME280;3098;42.678;23.364;2023-04-22T06:10:53;94699.41;;;19.26;49.60
6134;BME280;3098;42.678;23.364;2023-04-22T06:13:20;94697.75;;;20.94;44.60
6134;BME280;3098;42.678;23.364;2023-04-22T06:15:48;94650.59;;;21.60;42.50
6134;BME280;3098;42.678;23.364;2023-04-22T06:18:17;94730.44;;;21.75;40.99
6134;BME280;3098;42.678;23.364;2023-04-22T06:20:44;94729.66;;;21.67;42.31
6134;BME280;3098;42.678;23.364;2023-04-22T06:23:11;94702.41;;;19.51;43.77
6134;BME280;3098;42.678;23.364;2023-04-22T06:25:39;94727.16;;;17.99;49.74
6134;BME280;3098;42.678;23.364;2023-04-22T06:28:06;94703.28;;;18.43;47.97
6134;BME280;3098;42.678;23.364;2023-04-22T06:30:33;94733.84;;;19.80;46.76
6134;BME280;3098;42.678;23.364;2023-04-22T06:33:00;94712.38;;;18.35;47.89
6134;BME280;3098;42.678;23.364;2023-04-22T06:35:30;94732.41;;;17.31;53.40
6134;BME280;3098;42.678;23.364;2023-04-22T06:37:57;94622.91;;;18.01;49.03
6134;BME280;3098;42.678;23.364;2023-04-22T06:40:26;94740.81;;;19.22;48.18
6134;BME280;3098;42.678;23.364;2023-04-22T06:42:53;94668.44;;;19.06;48.17
6134;BME280;3098;42.678;23.364;2023-04-22T06:45:20;94627.19;;;20.71;43.40
6134;BME280;3098;42.678;23.364;2023-04-22T06:47:51;94632.81;;;19.93;44.93
6134;BME280;3098;42.678;23.364;2023-04-22T06:50:19;94734.88;;;20.13;44.72
6134;BME280;3098;42.678;23.364;2023-04-22T06:52:48;94569.53;;;20.17;42.98
6134;BME280;3098;42.678;23.364;2023-04-22T06:55:15;94721.56;;;21.67;42.06
6134;BME280;3098;42.678;23.364;2023-04-22T06:57:43;94732.88;;;22.29;41.85
6134;BME280;3098;42.678;23.364;2023-04-22T07:00:11;94737.09;;;22.06;40.98
6134;BME280;3098;42.678;23.364;2023-04-22T07:02:39;94735.16;;;22.98;40.32
6134;BME280;3098;42.678;23.364;2023-04-22T07:05:06;94650.09;;;23.06;37.66
6134;BME280;3098;42.678;23.364;2023-04-22T07:07:34;94612.53;;;23.84;36.19
6134;BME280;3098;42.678;23.364;2023-04-22T07:10:09;94744.25;;;25.15;35.38
6134;BME280;3098;42.678;23.364;2023-04-22T07:12:37;94737.69;;;25.50;34.10
6134;BME280;3098;42.678;23.364;2023-04-22T07:15:05;94700.28;;;25.31;34.32
6134;BME280;3098;42.678;23.364;2023-04-22T07:17:32;94745.06;;;26.60;32.42
6134;BME280;3098;42.678;23.364;2023-04-22T07:19:59;94731.63;;;24.98;34.44
6134;BME280;3098;42.678;23.364;2023-04-22T07:22:27;94743.09;;;25.16;34.20
6134;BME280;3098;42.678;23.364;2023-04-22T07:24:55;94737.69;;;24.72;35.04
6134;BME280;3098;42.678;23.364;2023-04-22T07:27:24;94705.78;;;23.87;35.88
6134;BME280;3098;42.678;23.364;2023-04-22T07:29:51;94661.81;;;22.78;37.79
6134;BME280;3098;42.678;23.364;2023-04-22T07:32:20;94712.38;;;22.57;39.38
6134;BME280;3098;42.678;23.364;2023-04-22T07:34:48;94708.81;;;21.57;39.50
6134;BME280;3098;42.678;23.364;2023-04-22T07:37:17;94558.44;;;21.30;38.78
6134;BME280;3098;42.678;23.364;2023-04-22T07:39:47;94379.94;;;20.29;38.01
6134;BME280;3098;42.678;23.364;2023-04-22T07:42:18;94695.78;;;22.83;37.44
6134;BME280;3098;42.678;23.364;2023-04-22T07:44:48;94625.81;;;21.08;40.40
6134;BME280;3098;42.678;23.364;2023-04-22T07:47:15;94738.66;;;22.42;39.11
6134;BME280;3098;42.678;23.364;2023-04-22T07:49:42;94718.19;;;21.99;39.26
6134;BME280;3098;42.678;23.364;2023-04-22T07:52:10;94559.13;;;21.02;39.13
6134;BME280;3098;42.678;23.364;2023-04-22T07:54:37;94731.09;;;23.56;36.66
6134;BME280;3098;42.678;23.364;2023-04-22T07:57:05;94732.06;;;23.90;37.73
6134;BME280;3098;42.678;23.364;2023-04-22T07:59:33;94551.91;;;21.59;37.14
6134;BME280;3098;42.678;23.364;2023-04-22T08:02:02;94735.44;;;24.63;34.95
6134;BME280;3098;42.678;23.364;2023-04-22T08:04:29;94719.63;;;23.20;37.14
6134;BME280;3098;42.678;23.364;2023-04-22T08:06:57;94734.63;;;23.49;36.65
6134;BME280;3098;42.678;23.364;2023-04-22T08:09:28;94618.06;;;23.01;35.91
6134;BME280;3098;42.678;23.364;2023-04-22T08:11:55;94729.53;;;23.62;36.80
6134;BME280;3098;42.678;23.364;2023-04-22T08:14:23;94608.16;;;22.66;36.29
6134;BME280;3098;42.678;23.364;2023-04-22T08:16:51;94462.84;;;21.59;35.34
6134;BME280;3098;42.678;23.364;2023-04-22T08:19:20;94658.22;;;23.10;34.96
6134;BME280;3098;42.678;23.364;2023-04-22T08:21:48;94726.69;;;22.47;36.83
6134;BME280;3098;42.678;23.364;2023-04-22T08:24:16;94594.28;;;21.51;36.35
6134;BME280;3098;42.678;23.364;2023-04-22T08:26:43;94652.47;;;22.97;34.57
6134;BME280;3098;42.678;23.364;2023-04-22T08:29:12;94736.16;;;20.73;38.32
6134;BME280;3098;42.678;23.364;2023-04-22T08:31:39;94616.75;;;19.57;39.28
6134;BME280;3098;42.678;23.364;2023-04-22T08:34:06;94651.81;;;20.73;38.69
6134;BME280;3098;42.678;23.364;2023-04-22T08:36:35;94447.78;;;20.84;36.19
6134;BME280;3098;42.678;23.364;2023-04-22T08:39:03;94720.19;;;24.83;32.80
6134;BME280;3098;42.678;23.364;2023-04-22T08:41:33;94698.84;;;24.85;33.36
6134;BME280;3098;42.678;23.364;2023-04-22T08:44:00;94638.38;;;23.96;33.91
6134;BME280;3098;42.678;23.364;2023-04-22T08:46:30;94644.75;;;22.85;35.82
6134;BME280;3098;42.678;23.364;2023-04-22T08:48:58;94632.47;;;21.50;36.70
6134;BME280;3098;42.678;23.364;2023-04-22T08:51:30;94607.03;;;21.54;36.73
6134;BME280;3098;42.678;23.364;2023-04-22T08:53:59;94464.34;;;20.72;36.87
6134;BME280;3098;42.678;23.364;2023-04-22T08:56:27;94605.47;;;21.50;36.82
6134;BME280;3098;42.678;23.364;2023-04-22T08:58:56;94567.97;;;22.61;34.60
6134;BME280;3098;42.678;23.364;2023-04-22T09:01:25;94629.91;;;23.25;33.98
6134;BME280;3098;42.678;23.364;2023-04-22T09:03:57;94603.59;;;22.17;34.07
6134;BME280;3098;42.678;23.364;2023-04-22T09:06:26;94646.38;;;21.69;34.45
6134;BME280;3098;42.678;23.364;2023-04-22T09:08:53;94619.22;;;19.76;37.82
6134;BME280;3098;42.678;23.364;2023-04-22T09:11:22;94677.72;;;20.95;37.68
6134;BME280;3098;42.678;23.364;2023-04-22T09:13:49;94635.59;;;21.84;36.77
6134;BME280;3098;42.678;23.364;2023-04-22T09:16:17;94673.97;;;23.29;33.48
6134;BME280;3098;42.678;23.364;2023-04-22T09:18:44;94634.50;;;24.00;32.13
6134;BME280;3098;42.678;23.364;2023-04-22T09:21:12;94627.19;;;23.32;33.68
6134;BME280;3098;42.678;23.364;2023-04-22T09:23:47;94670.44;;;23.42;33.40
6134;BME280;3098;42.678;23.364;2023-04-22T09:26:18;94434.41;;;22.55;32.92
6134;BME280;3098;42.678;23.364;2023-04-22T09:28:51;94599.88;;;23.05;32.07
6134;BME280;3098;42.678;23.364;2023-04-22T09:31:20;94560.00;;;21.80;32.68
6134;BME280;3098;42.678;23.364;2023-04-22T09:33:49;94628.22;;;22.65;33.17
6134;BME280;3098;42.678;23.364;2023-04-22T09:36:26;94281.06;;;20.61;32.19
6134;BME280;3098;42.678;23.364;2023-04-22T09:38:54;94582.84;;;20.57;33.66
6134;BME280;3098;42.678;23.364;2023-04-22T09:41:28;94457.34;;;20.53;34.32
6134;BME280;3098;42.678;23.364;2023-04-22T09:44:00;94553.06;;;21.58;34.34
6134;BME280;3098;42.678;23.364;2023-04-22T09:46:29;94654.38;;;23.80;32.07
6134;BME280;3098;42.678;23.364;2023-04-22T09:48:59;94634.19;;;23.88;29.89
6134;BME280;3098;42.678;23.364;2023-04-22T09:51:28;94628.34;;;23.93;30.82
6134;BME280;3098;42.678;23.364;2023-04-22T09:53:59;94506.78;;;21.49;32.54
6134;BME280;3098;42.678;23.364;2023-04-22T09:56:52;94656.00;;;22.80;33.40
6134;BME280;3098;42.678;23.364;2023-04-22T09:59:29;94592.72;;;19.81;37.07
6134;BME280;3098;42.678;23.364;2023-04-22T10:01:58;94607.66;;;18.61;37.95
6134;BME280;3098;42.678;23.364;2023-04-22T10:04:29;94669.47;;;17.67;39.87
6134;BME280;3098;42.678;23.364;2023-04-22T10:06:56;94681.03;;;16.37;41.57
6134;BME280;3098;42.678;23.364;2023-04-22T10:09:24;94671.84;;;16.03;42.92
6134;BME280;3098;42.678;23.364;2023-04-22T10:11:53;94640.31;;;16.12;41.52
6134;BME280;3098;42.678;23.364;2023-04-22T10:14:23;94512.75;;;16.16;40.34
6134;BME280;3098;42.678;23.364;2023-04-22T10:16:55;94662.63;;;17.28;40.21
6134;BME280;3098;42.678;23.364;2023-04-22T10:19:25;94587.56;;;17.50;38.74
6134;BME280;3098;42.678;23.364;2023-04-22T10:21:56;94619.94;;;17.84;38.47
6134;BME280;3098;42.678;23.364;2023-04-22T10:24:27;94637.34;;;17.93;37.79
6134;BME280;3098;42.678;23.364;2023-04-22T10:26:56;94640.78;;;16.87;39.24
6134;BME280;3098;42.678;23.364;2023-04-22T10:29:34;94643.84;;;16.51;39.05
6134;BME280;3098;42.678;23.364;2023-04-22T10:32:05;94636.97;;;16.69;40.55
6134;BME280;3098;42.678;23.364;2023-04-22T10:35:01;94605.38;;;16.97;41.96
6134;BME280;3098;42.678;23.364;2023-04-22T10:37:32;94594.44;;;16.29;42.67
6134;BME280;3098;42.678;23.364;2023-04-22T10:40:08;94532.94;;;17.13;40.25
6134;BME280;3098;42.678;23.364;2023-04-22T10:42:41;94574.53;;;18.54;36.90
6134;BME280;3098;42.678;23.364;2023-04-22T10:45:12;94561.06;;;19.20;34.22
6134;BME280;3098;42.678;23.364;2023-04-22T10:47:42;94585.44;;;18.64;35.12
6134;BME280;3098;42.678;23.364;2023-04-22T10:50:15;94557.91;;;18.74;34.07
6134;BME280;3098;42.678;23.364;2023-04-22T10:52:45;94623.97;;;19.89;33.65
6134;BME280;3098;42.678;23.364;2023-04-22T10:55:12;94489.03;;;18.59;33.95
6134;BME280;3098;42.678;23.364;2023-04-22T10:57:41;94418.75;;;18.50;33.09
6134;BME280;3098;42.678;23.364;2023-04-22T11:00:26;94637.31;;;21.02;32.95
6134;BME280;3098;42.678;23.364;2023-04-22T11:03:08;94589.94;;;19.67;32.88
6134;BME280;3098;42.678;23.364;2023-04-22T11:05:37;94588.19;;;19.89;32.26
6134;BME280;3098;42.678;23.364;2023-04-22T11:08:06;94616.81;;;20.76;32.37
6134;BME280;3098;42.678;23.364;2023-04-22T11:10:36;94553.44;;;19.66;32.84
6134;BME280;3098;42.678;23.364;2023-04-22T11:13:08;94556.91;;;18.89;34.54
6134;BME280;3098;42.678;23.364;2023-04-22T11:15:38;94570.41;;;18.33;36.52
6134;BME280;3098;42.678;23.364;2023-04-22T11:18:21;94631.31;;;17.54;39.86
6134;BME280;3098;42.678;23.364;2023-04-22T11:20:49;94629.41;;;17.77;41.17
6134;BME280;3098;42.678;23.364;2023-04-22T11:23:22;94493.06;;;17.08;42.05
6134;BME280;3098;42.678;23.364;2023-04-22T11:25:56;94404.31;;;16.64;41.62
6134;BME280;3098;42.678;23.364;2023-04-22T11:28:23;94645.56;;;16.97;43.47
6134;BME280;3098;42.678;23.364;2023-04-22T11:30:52;94652.78;;;16.93;44.95
6134;BME280;3098;42.678;23.364;2023-04-22T11:33:28;94630.00;;;16.84;43.33
6134;BME280;3098;42.678;23.364;2023-04-22T11:35:55;94499.13;;;16.82;43.07
6134;BME280;3098;42.678;23.364;2023-04-22T11:38:23;94650.94;;;17.58;44.27
6134;BME280;3098;42.678;23.364;2023-04-22T11:40:50;94666.63;;;17.56;42.55
6134;BME280;3098;42.678;23.364;2023-04-22T11:43:17;94660.19;;;17.61;42.86
6134;BME280;3098;42.678;23.364;2023-04-22T11:45:44;94508.53;;;16.34;44.09
6134;BME280;3098;42.678;23.364;2023-04-22T11:48:13;94535.56;;;15.75;44.74
6134;BME280;3098;42.678;23.364;2023-04-22T11:50:42;94666.25;;;16.97;45.21
6134;BME280;3098;42.678;23.364;2023-04-22T11:53:14;94671.00;;;17.45;43.78
6134;BME280;3098;42.678;23.364;2023-04-22T11:55:45;94600.03;;;15.55;45.89
6134;BME280;3098;42.678;23.364;2023-04-22T11:58:19;94678.22;;;15.51;47.64
6134;BME280;3098;42.678;23.364;2023-04-22T12:00:50;94654.19;;;15.83;48.31
6134;BME280;3098;42.678;23.364;2023-04-22T12:03:20;94685.47;;;15.67;51.51
6134;BME280;3098;42.678;23.364;2023-04-22T12:05:51;94633.59;;;15.24;51.71
6134;BME280;3098;42.678;23.364;2023-04-22T12:08:20;94679.94;;;16.06;50.88
6134;BME280;3098;42.678;23.364;2023-04-22T12:10:51;94638.38;;;15.62;49.12
6134;BME280;3098;42.678;23.364;2023-04-22T12:13:20;94687.97;;;15.91;50.42
6134;BME280;3098;42.678;23.364;2023-04-22T12:15:47;94496.34;;;14.54;48.71
6134;BME280;3098;42.678;23.364;2023-04-22T12:18:15;94672.09;;;15.51;47.25
6134;BME280;3098;42.678;23.364;2023-04-22T12:20:43;94653.81;;;15.53;47.26
6134;BME280;3098;42.678;23.364;2023-04-22T12:23:15;94639.97;;;15.20;47.95
6134;BME280;3098;42.678;23.364;2023-04-22T12:25:42;94620.91;;;15.21;47.76
6134;BME280;3098;42.678;23.364;2023-04-22T12:28:10;94626.13;;;15.61;47.41
6134;BME280;3098;42.678;23.364;2023-04-22T12:30:38;94684.25;;;16.11;48.02
6134;BME280;3098;42.678;23.364;2023-04-22T12:33:06;94679.25;;;16.09;48.42
6134;BME280;3098;42.678;23.364;2023-04-22T12:35:34;94670.38;;;15.59;51.39
6134;BME280;3098;42.678;23.364;2023-04-22T12:38:01;94631.53;;;15.33;51.74
6134;BME280;3098;42.678;23.364;2023-04-22T12:40:31;94676.28;;;15.36;53.66
6134;BME280;3098;42.678;23.364;2023-04-22T12:42:59;94590.34;;;14.75;52.52
6134;BME280;3098;42.678;23.364;2023-04-22T12:45:30;94677.72;;;15.93;51.68
6134;BME280;3098;42.678;23.364;2023-04-22T12:47:57;94622.41;;;15.34;52.91
6134;BME280;3098;42.678;23.364;2023-04-22T12:50:24;94679.53;;;15.30;56.09
6134;BME280;3098;42.678;23.364;2023-04-22T12:52:51;94530.50;;;14.21;56.14
6134;BME280;3098;42.678;23.364;2023-04-22T12:55:19;94663.09;;;15.43;55.01
6134;BME280;3098;42.678;23.364;2023-04-22T12:57:49;94670.72;;;15.73;53.87
6134;BME280;3098;42.678;23.364;2023-04-22T13:00:17;94661.56;;;16.05;53.08
6134;BME280;3098;42.678;23.364;2023-04-22T13:02:46;94658.84;;;15.86;50.71
6134;BME280;3098;42.678;23.364;2023-04-22T13:05:15;94366.56;;;13.59;51.45
6134;BME280;3098;42.678;23.364;2023-04-22T13:07:43;94555.16;;;15.17;50.84
6134;BME280;3098;42.678;23.364;2023-04-22T13:10:12;94433.09;;;14.70;49.23
6134;BME280;3098;42.678;23.364;2023-04-22T13:12:40;94662.53;;;15.97;48.37
6134;BME280;3098;42.678;23.364;2023-04-22T13:15:10;94655.88;;;15.75;49.11
6134;BME280;3098;42.678;23.364;2023-04-22T13:17:38;94661.19;;;16.22;48.34